Time,TemperatureF,DewpointF,PressureIn,WindDirection,WindDirectionDegrees,WindSpeedMPH,WindSpeedGustMPH,Humidity,HourlyPrecipIn,Conditions,Clouds,dailyrainin,SoftwareType,DateUTC
2013-02-05 00:00:00,21.7,20.0,29.90,North,0,2.0,4.0,93,0.00,,---,0.00,VWS V14.01,2013-02-05 05:00:00,
2013-02-05 00:30:00,21.2,19.5,29.90,North,0,1.0,3.0,93,0.00,,---,0.00,VWS V14.01,2013-02-05 05:30:00,
2013-02-05 01:00:00,21.2,19.5,29.90,North,0,1.0,3.0,93,0.00,,---,0.00,VWS V14.01,2013-02-05 06:00:00,
2013-02-05 01:30:00,20.8,18.9,29.91,North,0,1.0,5.0,92,0.00,,---,0.00,VWS V14.01,2013-02-05 06:30:00,
2013-02-05 02:00:00,19.2,17.5,29.91,North,0,0.0,2.0,93,0.00,,---,0.00,VWS V14.01,2013-02-05 07:00:00,
2013-02-05 02:30:00,19.7,18.0,29.92,North,0,1.0,3.0,93,0.00,,---,0.00,VWS V14.01,2013-02-05 07:30:00,
2013-02-05 03:00:00,18.3,16.4,29.92,North,0,0.0,2.0,92,0.00,,---,0.00,VWS V14.01,2013-02-05 08:00:00,
2013-02-05 03:30:00,18.2,16.5,29.91,North,0,0.0,2.0,93,0.00,,---,0.00,VWS V14.01,2013-02-05 08:30:00,
2013-02-05 04:00:00,18.6,16.9,29.91,North,0,0.0,0.0,93,0.00,,---,0.00,VWS V14.01,2013-02-05 09:00:00,
2013-02-05 04:30:00,17.8,15.9,29.89,North,0,0.0,2.0,92,0.00,,---,0.00,VWS V14.01,2013-02-05 09:30:00,
2013-02-05 05:00:00,17.9,16.0,29.90,North,0,0.0,3.0,92,0.00,,---,0.00,VWS V14.01,2013-02-05 10:00:00,
2013-02-05 05:30:00,17.7,15.8,29.89,North,0,0.0,1.0,92,0.00,,---,0.00,VWS V14.01,2013-02-05 10:30:00,
2013-02-05 06:00:00,16.7,14.8,29.88,North,0,0.0,1.0,92,0.00,,---,0.00,VWS V14.01,2013-02-05 11:00:00,
2013-02-05 06:30:00,15.8,13.9,29.91,WNW,292,0.0,4.0,92,0.00,,---,0.00,VWS V14.01,2013-02-05 11:30:00,
2013-02-05 07:00:00,15.3,13.1,29.89,WNW,292,0.0,2.0,91,0.00,,---,0.00,VWS V14.01,2013-02-05 12:00:00,
2013-02-05 07:30:00,14.5,12.4,29.91,WNW,292,1.0,4.0,91,0.00,,---,0.00,VWS V14.01,2013-02-05 12:30:00,
2013-02-05 08:00:00,14.1,12.0,29.91,SSW,202,0.0,3.0,91,0.00,,---,0.00,VWS V14.01,2013-02-05 13:00:00,
2013-02-05 08:30:00,15.8,13.9,29.91,SSW,202,1.0,3.0,92,0.00,,---,0.00,VWS V14.01,2013-02-05 13:30:00,
2013-02-05 09:00:00,17.0,15.1,29.92,South,180,1.0,4.0,92,0.00,,---,0.00,VWS V14.01,2013-02-05 14:00:00,
2013-02-05 09:30:00,18.6,16.7,29.91,South,180,1.0,5.0,92,0.00,,---,0.00,VWS V14.01,2013-02-05 14:30:00,
2013-02-05 10:00:00,20.3,18.6,29.91,South,180,2.0,6.0,93,0.00,,---,0.00,VWS V14.01,2013-02-05 15:00:00,
2013-02-05 10:30:00,21.5,19.8,29.90,South,180,3.0,8.0,93,0.00,,---,0.00,VWS V14.01,2013-02-05 15:30:00,
2013-02-05 11:00:00,23.3,21.6,29.89,South,180,3.0,8.0,93,0.00,,---,0.00,VWS V14.01,2013-02-05 16:00:00,
2013-02-05 11:30:00,24.5,22.8,29.87,South,180,4.0,14.0,93,0.00,,---,0.00,VWS V14.01,2013-02-05 16:30:00,
2013-02-05 12:00:00,26.2,23.4,29.87,South,180,6.0,12.0,89,0.00,,---,0.00,VWS V14.01,2013-02-05 17:00:00,
2013-02-05 12:30:00,28.0,23.2,29.85,South,180,5.0,11.0,82,0.00,,---,0.00,VWS V14.01,2013-02-05 17:30:00,
2013-02-05 13:00:00,29.1,23.7,29.83,South,180,5.0,12.0,80,0.00,,---,0.00,VWS V14.01,2013-02-05 18:00:00,
2013-02-05 13:30:00,29.3,23.6,29.82,South,180,7.0,14.0,79,0.00,,---,0.00,VWS V14.01,2013-02-05 18:30:00,
2013-02-05 14:00:00,28.6,22.9,29.81,South,180,7.0,19.0,79,0.01,,---,0.01,VWS V14.01,2013-02-05 19:00:00,
2013-02-05 14:30:00,29.7,23.4,29.80,South,180,7.0,14.0,77,0.01,,---,0.01,VWS V14.01,2013-02-05 19:30:00,
2013-02-05 15:00:00,29.8,23.5,29.80,South,180,8.0,15.0,77,0.02,,---,0.02,VWS V14.01,2013-02-05 20:00:00,
2013-02-05 15:30:00,29.8,23.8,29.80,SSW,202,7.0,14.0,78,0.03,,---,0.04,VWS V14.01,2013-02-05 20:30:00,
2013-02-05 16:00:00,29.4,24.6,29.81,SSW,202,7.0,12.0,82,0.04,,---,0.05,VWS V14.01,2013-02-05 21:00:00,
2013-02-05 16:30:00,28.7,25.3,29.83,SW,225,5.0,8.0,87,0.03,,---,0.05,VWS V14.01,2013-02-05 21:30:00,
2013-02-05 17:00:00,28.5,26.2,29.83,SW,225,5.0,9.0,91,0.01,,---,0.05,VWS V14.01,2013-02-05 22:00:00,
2013-02-05 17:30:00,28.5,26.5,29.83,SW,225,4.0,8.0,92,0.00,,---,0.05,VWS V14.01,2013-02-05 22:30:00,
2013-02-05 18:00:00,28.3,26.5,29.84,SW,225,4.0,8.0,93,0.00,,---,0.05,VWS V14.01,2013-02-05 23:00:00,
2013-02-05 18:30:00,28.3,26.5,29.85,SW,225,4.0,6.0,93,0.00,,---,0.05,VWS V14.01,2013-02-05 23:30:00,
2013-02-05 19:00:00,29.1,27.3,29.86,WSW,248,5.0,9.0,93,0.00,,---,0.05,VWS V14.01,2013-02-06 00:00:00,
2013-02-05 19:30:00,29.5,27.7,29.87,WSW,248,6.0,10.0,93,0.00,,---,0.05,VWS V14.01,2013-02-06 00:30:00,
2013-02-05 20:00:00,29.6,27.8,29.88,West,270,5.0,10.0,93,0.00,,---,0.05,VWS V14.01,2013-02-06 01:00:00,
2013-02-05 20:30:00,29.5,27.2,29.90,West,270,7.0,12.0,91,0.00,,---,0.05,VWS V14.01,2013-02-06 01:30:00,
2013-02-05 21:00:00,29.5,26.9,29.92,WNW,292,8.0,13.0,90,0.00,,---,0.05,VWS V14.01,2013-02-06 02:00:00,
2013-02-05 21:30:00,29.5,26.9,29.93,WNW,292,7.0,14.0,90,0.00,,---,0.05,VWS V14.01,2013-02-06 02:30:00,
2013-02-05 22:00:00,29.6,27.0,29.95,WNW,292,8.0,16.0,90,0.00,,---,0.05,VWS V14.01,2013-02-06 03:00:00,
2013-02-05 22:30:00,29.5,26.9,29.96,WNW,292,8.0,14.0,90,0.00,,---,0.05,VWS V14.01,2013-02-06 03:30:00,
2013-02-05 23:00:00,29.1,26.8,29.97,WNW,292,7.0,12.0,91,0.00,,---,0.05,VWS V14.01,2013-02-06 04:00:00,
2013-02-05 23:30:00,29.0,26.7,29.98,WNW,292,7.0,12.0,91,0.00,,---,0.05,VWS V14.01,2013-02-06 04:30:00,